Time;durP1;ratioP1;P1;durP2;ratioP2;P2;SDS_P1;SDS_P2;PMS_P1;PMS_P2;Temp;Humidity;BMP_temperature;BMP_pressure;BME280_temperature;BME280_humidity;BME280_pressure;Samples;Min_cycle;Max_cycle;Signal;HPM_P1;HPM_P2
2022/04/28 00:00:09;;;;;;;23.25;17.63;;;9.60;99.90;;;;;;5060938;28;20086;-68
2022/04/28 00:02:35;;;;;;;21.85;18.63;;;9.60;99.90;;;;;;4348455;28;10000971;-67
2022/04/28 00:05:02;;;;;;;25.80;18.95;;;9.60;99.90;;;;;;5058789;28;20032;-67
2022/04/28 00:07:28;;;;;;;25.75;18.83;;;9.60;99.90;;;;;;5064884;28;20113;-68
2022/04/28 00:09:53;;;;;;;29.00;19.35;;;9.60;99.90;;;;;;5060755;28;20123;-67
2022/04/28 00:12:19;;;;;;;27.60;18.52;;;9.60;99.90;;;;;;5057795;28;20025;-67
2022/04/28 00:14:44;;;;;;;27.30;19.45;;;9.50;99.90;;;;;;5063118;28;20730;-68
2022/04/28 00:17:10;;;;;;;28.83;19.17;;;9.50;99.90;;;;;;5081606;28;20038;-68
2022/04/28 00:19:37;;;;;;;23.90;18.00;;;9.50;99.90;;;;;;5064639;28;20028;-68
2022/04/28 00:22:03;;;;;;;25.83;19.30;;;9.50;99.90;;;;;;5059638;28;20028;-68
2022/04/28 00:24:28;;;;;;;27.13;18.73;;;9.50;99.90;;;;;;5063524;28;20044;-68
2022/04/28 00:26:54;;;;;;;28.13;19.73;;;9.50;99.90;;;;;;5054726;28;20044;-68
2022/04/28 00:29:21;;;;;;;26.20;19.25;;;9.50;99.90;;;;;;5059266;28;20381;-67
2022/04/28 00:31:46;;;;;;;26.65;18.23;;;9.50;99.90;;;;;;5062249;28;20040;-68
2022/04/28 00:34:12;;;;;;;24.77;18.73;;;9.50;99.90;;;;;;5064401;28;20025;-68
2022/04/28 00:36:38;;;;;;;27.55;19.52;;;9.50;99.90;;;;;;5064800;28;20481;-68
2022/04/28 00:39:03;;;;;;;24.50;17.83;;;9.50;99.90;;;;;;5065798;28;20136;-67
2022/04/28 00:41:29;;;;;;;27.05;18.85;;;9.50;99.90;;;;;;5061762;28;20030;-67
2022/04/28 00:43:54;;;;;;;25.85;18.83;;;9.50;99.90;;;;;;5067158;28;20111;-67
2022/04/28 00:46:21;;;;;;;26.05;18.73;;;9.50;99.90;;;;;;5065364;28;20033;-67
2022/04/28 00:51:34;;;;;;;25.42;18.40;;;9.50;99.90;;;;;;5054625;28;20055;-67
2022/04/28 00:54:01;;;;;;;25.70;18.33;;;9.40;99.90;;;;;;5066398;28;20029;-67
2022/04/28 00:56:27;;;;;;;27.75;18.15;;;9.40;99.90;;;;;;5061461;28;20032;-67
2022/04/28 00:58:55;;;;;;;24.23;17.67;;;9.40;99.90;;;;;;5059384;28;20035;-67
2022/04/28 01:01:21;;;;;;;23.73;17.73;;;9.40;99.90;;;;;;5063122;28;20037;-68
2022/04/28 01:03:47;;;;;;;27.55;18.10;;;9.40;99.90;;;;;;5061627;28;20025;-67
2022/04/28 01:06:13;;;;;;;23.20;17.38;;;9.30;99.90;;;;;;5060006;28;20029;-68
2022/04/28 01:08:40;;;;;;;20.67;16.55;;;9.30;99.90;;;;;;5055289;28;20156;-67
2022/04/28 01:11:06;;;;;;;27.08;17.75;;;9.30;99.90;;;;;;5060617;28;20079;-68
2022/04/28 01:13:32;;;;;;;21.42;16.83;;;9.20;99.90;;;;;;5063123;28;20025;-67
2022/04/28 01:15:58;;;;;;;22.08;16.67;;;9.20;99.90;;;;;;5064715;28;20055;-68
2022/04/28 01:18:24;;;;;;;21.50;16.88;;;9.20;99.90;;;;;;5061533;28;20108;-67
2022/04/28 01:20:50;;;;;;;24.70;17.80;;;9.20;99.90;;;;;;5065143;28;20498;-68
2022/04/28 01:23:18;;;;;;;22.63;17.00;;;9.20;99.90;;;;;;5056622;28;20170;-68
2022/04/28 01:25:43;;;;;;;24.63;17.58;;;9.20;99.90;;;;;;5062326;28;20036;-68
2022/04/28 01:28:09;;;;;;;22.77;16.33;;;9.20;99.90;;;;;;5063858;28;20089;-68
2022/04/28 01:30:37;;;;;;;27.00;17.05;;;9.20;99.90;;;;;;5059521;28;20132;-68
2022/04/28 01:33:04;;;;;;;25.60;16.65;;;9.10;99.90;;;;;;5054402;28;20025;-68
2022/04/28 01:35:30;;;;;;;26.17;17.35;;;9.10;99.90;;;;;;5073711;28;20046;-68
2022/04/28 01:37:55;;;;;;;21.83;16.40;;;9.10;99.90;;;;;;5069039;28;20033;-68
2022/04/28 01:40:21;;;;;;;21.13;16.20;;;9.10;99.90;;;;;;5065382;28;20028;-68
2022/04/28 01:42:48;;;;;;;22.83;16.33;;;9.00;99.90;;;;;;5065153;28;20029;-68
2022/04/28 01:45:14;;;;;;;19.75;15.50;;;9.00;99.90;;;;;;5064497;28;20065;-68
2022/04/28 01:47:40;;;;;;;24.50;16.83;;;9.00;99.90;;;;;;5063636;28;20017;-68
2022/04/28 01:50:09;;;;;;;22.50;16.13;;;9.00;99.90;;;;;;5068299;28;20036;-68
2022/04/28 01:55:19;;;;;;;25.02;15.57;;;9.00;99.90;;;;;;5062889;28;20043;-67
2022/04/28 01:57:46;;;;;;;25.67;16.48;;;8.90;99.90;;;;;;5062125;28;20028;-67
2022/04/28 02:00:12;;;;;;;23.27;15.98;;;8.90;99.90;;;;;;5054703;28;20071;-67
2022/04/28 02:02:38;;;;;;;21.35;15.35;;;8.90;99.90;;;;;;5064770;28;20135;-67
2022/04/28 02:05:05;;;;;;;20.50;14.57;;;8.90;99.90;;;;;;5065491;28;20498;-67
2022/04/28 02:07:31;;;;;;;24.10;15.18;;;8.90;99.90;;;;;;5062026;28;20024;-67
2022/04/28 02:09:57;;;;;;;24.27;16.23;;;8.90;99.90;;;;;;5062984;28;20016;-68
2022/04/28 02:12:27;;;;;;;25.58;15.45;;;8.90;99.90;;;;;;5048314;28;20586;-67
2022/04/28 02:14:55;;;;;;;24.10;14.98;;;8.90;99.90;;;;;;5061777;28;20899;-66
2022/04/28 02:17:24;;;;;;;22.17;15.50;;;8.80;99.90;;;;;;5065106;28;20024;-67
2022/04/28 02:19:50;;;;;;;23.95;16.30;;;8.80;99.90;;;;;;5062263;28;20024;-67
2022/04/28 02:22:17;;;;;;;21.92;16.08;;;8.80;99.90;;;;;;5057627;28;20062;-67
2022/04/28 02:24:43;;;;;;;23.42;16.30;;;8.70;99.90;;;;;;5058422;28;20680;-67
2022/04/28 02:27:09;;;;;;;28.17;16.33;;;8.70;99.90;;;;;;5058679;28;20123;-68
2022/04/28 02:29:36;;;;;;;23.67;16.50;;;8.70;99.90;;;;;;5062197;28;20051;-67
2022/04/28 02:32:03;;;;;;;22.20;16.15;;;8.70;99.90;;;;;;5046732;28;20615;-67
2022/04/28 02:34:29;;;;;;;24.67;16.95;;;8.70;99.90;;;;;;5064192;28;20432;-67
2022/04/28 02:36:56;;;;;;;24.15;17.50;;;8.80;99.90;;;;;;5064808;28;20033;-67
2022/04/28 02:39:21;;;;;;;24.65;18.52;;;8.70;99.90;;;;;;5070520;28;20479;-68
2022/04/28 02:41:47;;;;;;;23.90;18.27;;;8.60;99.90;;;;;;5055452;28;20064;-67
2022/04/28 02:44:13;;;;;;;25.77;18.65;;;8.60;99.90;;;;;;5056477;28;20444;-67
2022/04/28 02:46:43;;;;;;;24.75;18.50;;;8.60;99.90;;;;;;5046657;28;20029;-67
2022/04/28 02:49:09;;;;;;;32.78;18.75;;;8.50;99.90;;;;;;5068874;28;20103;-68
2022/04/28 02:51:35;;;;;;;29.35;19.02;;;8.50;99.90;;;;;;5060732;28;21915;-68
2022/04/28 02:54:01;;;;;;;24.65;17.50;;;8.50;99.90;;;;;;5064502;28;20111;-68
2022/04/28 02:56:26;;;;;;;30.80;19.67;;;8.40;99.90;;;;;;5060513;28;20112;-67
2022/04/28 02:58:53;;;;;;;23.48;17.42;;;8.40;99.90;;;;;;5073084;28;20024;-68
2022/04/28 03:01:20;;;;;;;28.48;16.98;;;8.40;99.90;;;;;;5046768;28;20095;-67
2022/04/28 03:03:45;;;;;;;28.63;18.40;;;8.40;99.90;;;;;;5063487;28;20680;-68
2022/04/28 03:11:41;;;;;;;21.38;16.05;;;8.30;99.90;;;;;;5042553;28;20035;-67
2022/04/28 03:14:07;;;;;;;30.15;17.05;;;8.30;99.90;;;;;;5060882;28;20033;-67
2022/04/28 03:16:33;;;;;;;23.00;16.65;;;8.30;99.90;;;;;;5064946;28;20035;-68
2022/04/28 03:18:59;;;;;;;28.88;17.00;;;8.30;99.90;;;;;;5059322;28;20037;-67
2022/04/28 03:21:24;;;;;;;26.92;16.33;;;8.30;99.90;;;;;;5065269;28;20032;-67
2022/04/28 03:23:51;;;;;;;29.02;17.40;;;8.30;99.90;;;;;;5067756;28;20064;-67
2022/04/28 03:26:16;;;;;;;30.10;17.17;;;8.30;99.90;;;;;;5068760;28;20059;-67
2022/04/28 03:28:42;;;;;;;29.05;17.13;;;8.20;99.90;;;;;;5067926;28;20440;-67
2022/04/28 03:31:08;;;;;;;22.95;15.98;;;8.20;99.90;;;;;;5064264;28;20032;-67
2022/04/28 03:33:34;;;;;;;24.25;16.15;;;8.20;99.90;;;;;;5072338;28;20339;-67
2022/04/28 03:36:00;;;;;;;28.30;17.25;;;8.20;99.90;;;;;;5060974;28;20116;-67
2022/04/28 03:38:25;;;;;;;26.27;16.63;;;8.10;99.90;;;;;;5060161;28;20119;-67
2022/04/28 03:40:51;;;;;;;25.42;17.48;;;8.10;99.90;;;;;;5065441;28;20033;-67
2022/04/28 03:43:17;;;;;;;25.73;16.58;;;8.10;99.90;;;;;;5067770;28;20032;-67
2022/04/28 03:45:43;;;;;;;26.55;17.27;;;8.10;99.90;;;;;;5072531;28;20039;-68
2022/04/28 03:48:09;;;;;;;26.50;17.67;;;8.10;99.90;;;;;;5061995;28;20500;-67
2022/04/28 03:50:38;;;;;;;32.53;17.70;;;8.10;99.90;;;;;;5063855;28;20155;-67
2022/04/28 03:53:05;;;;;;;27.58;17.45;;;8.00;99.90;;;;;;5067598;28;20029;-67
2022/04/28 03:55:31;;;;;;;25.33;17.33;;;8.00;99.90;;;;;;5065994;28;20033;-67
2022/04/28 03:57:57;;;;;;;28.05;17.30;;;8.00;99.90;;;;;;5067589;28;20036;-67
2022/04/28 04:00:23;;;;;;;23.67;17.45;;;8.00;99.90;;;;;;5054426;28;20043;-67
2022/04/28 04:02:49;;;;;;;25.60;16.92;;;8.00;99.90;;;;;;5056840;28;20036;-67
2022/04/28 04:05:15;;;;;;;24.58;17.02;;;8.00;99.90;;;;;;5063760;28;20029;-68
2022/04/28 04:07:42;;;;;;;21.35;15.95;;;8.00;99.90;;;;;;5059061;28;20446;-68
2022/04/28 04:10:10;;;;;;;27.40;16.92;;;8.00;99.90;;;;;;5052161;28;20074;-68
2022/04/28 04:12:36;;;;;;;22.52;16.23;;;8.00;99.90;;;;;;5063103;28;20020;-68
2022/04/28 04:15:02;;;;;;;22.38;16.00;;;8.00;99.90;;;;;;5065846;28;20023;-68
2022/04/28 04:17:28;;;;;;;24.65;16.13;;;8.00;99.90;;;;;;5068513;28;20155;-68
2022/04/28 04:19:53;;;;;;;22.00;15.82;;;8.00;99.90;;;;;;5073640;28;20536;-68
2022/04/28 04:22:19;;;;;;;23.45;16.15;;;8.00;99.90;;;;;;5052494;28;20500;-67
2022/04/28 04:24:44;;;;;;;24.25;14.98;;;8.00;99.90;;;;;;5052870;28;20056;-67
2022/04/28 04:27:10;;;;;;;27.95;16.25;;;8.00;99.90;;;;;;4355586;28;10000803;-67
2022/04/28 04:29:38;;;;;;;23.95;15.95;;;8.10;99.90;;;;;;5057895;28;20519;-67
2022/04/28 04:32:17;;;;;;;22.27;15.32;;;8.10;99.90;;;;;;5060445;28;20454;-66
2022/04/28 04:34:46;;;;;;;23.40;15.75;;;8.10;99.90;;;;;;5065181;28;20090;-67
2022/04/28 04:37:12;;;;;;;21.98;15.57;;;8.10;99.90;;;;;;5055492;28;20029;-67
2022/04/28 04:39:38;;;;;;;22.27;15.50;;;8.10;99.90;;;;;;5051769;28;20381;-67
2022/04/28 04:42:04;;;;;;;23.48;16.08;;;8.10;99.90;;;;;;5061887;28;20028;-67
2022/04/28 04:44:30;;;;;;;31.17;16.98;;;8.20;99.90;;;;;;5058020;28;20024;-67
2022/04/28 04:46:55;;;;;;;22.27;16.38;;;8.20;99.90;;;;;;5066794;28;20069;-67
2022/04/28 04:49:21;;;;;;;22.80;15.68;;;8.20;99.90;;;;;;5061908;28;20047;-67
2022/04/28 04:51:47;;;;;;;25.77;16.65;;;8.30;99.90;;;;;;5059318;28;20016;-68
2022/04/28 04:54:12;;;;;;;23.92;15.82;;;8.20;99.90;;;;;;5062969;28;20037;-68
2022/04/28 04:56:38;;;;;;;25.40;16.23;;;8.30;99.90;;;;;;5063771;28;20109;-69
2022/04/28 04:59:04;;;;;;;22.83;16.60;;;8.30;99.90;;;;;;5070351;28;20093;-68
2022/04/28 05:01:30;;;;;;;22.75;16.17;;;8.30;99.90;;;;;;5063467;28;20036;-68
2022/04/28 05:03:56;;;;;;;26.70;16.15;;;8.40;99.90;;;;;;5062576;28;20029;-69
2022/04/28 05:06:22;;;;;;;21.10;15.65;;;8.40;99.90;;;;;;5057310;28;20115;-68
2022/04/28 05:08:48;;;;;;;25.15;16.48;;;8.50;99.90;;;;;;5055834;28;20036;-69
2022/04/28 05:11:13;;;;;;;25.42;16.60;;;8.50;99.90;;;;;;5057641;28;20032;-69
2022/04/28 05:13:39;;;;;;;26.20;17.17;;;8.50;99.90;;;;;;5065176;28;20090;-69
2022/04/28 05:16:05;;;;;;;27.95;16.45;;;8.60;99.90;;;;;;5063534;28;20033;-69
2022/04/28 05:18:31;;;;;;;25.58;16.55;;;8.60;99.90;;;;;;5053704;28;20116;-68
2022/04/28 05:20:57;;;;;;;28.23;17.25;;;8.60;99.90;;;;;;5063227;28;20103;-68
2022/04/28 05:23:23;;;;;;;25.30;17.50;;;8.70;99.90;;;;;;5066045;28;20056;-68
2022/04/28 05:25:49;;;;;;;24.92;16.45;;;8.60;99.90;;;;;;5063369;28;20090;-69
2022/04/28 05:28:15;;;;;;;24.27;17.13;;;8.70;99.90;;;;;;5064962;28;20025;-68
2022/04/28 05:30:40;;;;;;;27.27;16.90;;;8.70;99.90;;;;;;5055210;28;20048;-69
2022/04/28 05:33:06;;;;;;;28.65;17.33;;;8.70;99.90;;;;;;5056708;28;20083;-68
2022/04/28 05:35:37;;;;;;;25.15;18.08;;;8.70;99.90;;;;;;5057037;28;20391;-68
2022/04/28 05:38:02;;;;;;;25.52;17.42;;;8.70;99.90;;;;;;5065577;28;20028;-68
2022/04/28 05:40:28;;;;;;;26.85;17.48;;;8.80;99.90;;;;;;5063901;28;20554;-68
2022/04/28 05:45:42;;;;;;;29.17;17.63;;;8.80;99.90;;;;;;5061186;28;20044;-68
2022/04/28 05:48:15;;;;;;;29.88;18.73;;;8.80;99.90;;;;;;5061883;28;20031;-68
2022/04/28 05:50:42;;;;;;;29.58;18.63;;;8.80;99.90;;;;;;5058200;28;20033;-68
2022/04/28 05:53:08;;;;;;;30.88;18.85;;;8.80;99.90;;;;;;5073343;28;20457;-68
2022/04/28 05:55:34;;;;;;;26.38;18.83;;;8.80;99.90;;;;;;5063530;28;20471;-68
2022/04/28 05:58:00;;;;;;;31.15;19.80;;;8.90;99.90;;;;;;5066447;28;20085;-68
2022/04/28 06:00:27;;;;;;;26.13;18.00;;;9.00;99.90;;;;;;5055489;28;20395;-68
2022/04/28 06:02:53;;;;;;;26.40;18.52;;;9.00;99.90;;;;;;5049067;28;20047;-68
2022/04/28 06:05:19;;;;;;;31.00;18.83;;;9.10;99.90;;;;;;5059046;28;20086;-68
2022/04/28 06:07:45;;;;;;;26.63;18.42;;;9.20;99.90;;;;;;5061271;28;20033;-68
2022/04/28 06:10:12;;;;;;;25.05;18.25;;;9.20;99.90;;;;;;5063504;28;20032;-68
2022/04/28 06:12:37;;;;;;;26.13;18.70;;;9.20;99.90;;;;;;5065417;28;20028;-68
2022/04/28 06:15:03;;;;;;;30.67;19.88;;;9.40;99.90;;;;;;5062750;28;20396;-68
2022/04/28 06:17:29;;;;;;;25.63;19.20;;;9.50;99.90;;;;;;5067849;28;20233;-68
2022/04/28 06:19:54;;;;;;;30.42;18.00;;;9.60;99.90;;;;;;5055122;28;20461;-68
2022/04/28 06:22:20;;;;;;;25.73;18.98;;;9.80;99.90;;;;;;5065725;28;20107;-69
2022/04/28 06:24:51;;;;;;;24.63;17.70;;;10.00;99.90;;;;;;5062932;28;20055;-69
2022/04/28 06:27:17;;;;;;;28.23;17.15;;;10.10;99.90;;;;;;5059595;28;20041;-68
2022/04/28 06:29:44;;;;;;;27.30;16.85;;;10.10;99.90;;;;;;5063845;28;20017;-68
2022/04/28 06:32:09;;;;;;;27.88;17.70;;;10.20;99.90;;;;;;5056436;28;20016;-68
2022/04/28 06:34:35;;;;;;;29.92;17.38;;;10.10;99.90;;;;;;5052082;28;20145;-68
2022/04/28 06:37:00;;;;;;;27.58;17.15;;;10.10;99.90;;;;;;5061950;28;20043;-68
2022/04/28 06:39:26;;;;;;;34.53;18.00;;;10.00;99.90;;;;;;5058228;28;20057;-69
2022/04/28 06:41:52;;;;;;;31.75;18.55;;;9.90;99.90;;;;;;5056713;28;20032;-68
2022/04/28 06:44:17;;;;;;;28.95;17.77;;;9.80;99.90;;;;;;5060853;28;20480;-69
2022/04/28 06:46:43;;;;;;;32.55;19.17;;;9.90;99.90;;;;;;5067510;28;20032;-68
2022/04/28 06:49:08;;;;;;;29.13;18.52;;;10.00;99.90;;;;;;5045354;28;20100;-68
2022/04/28 06:51:34;;;;;;;30.20;18.17;;;10.20;99.90;;;;;;5041962;28;20784;-68
2022/04/28 06:54:00;;;;;;;31.65;18.48;;;10.40;99.90;;;;;;5057630;28;20025;-68
2022/04/28 06:56:25;;;;;;;26.73;17.75;;;10.60;99.90;;;;;;5066384;28;20037;-68
2022/04/28 06:58:51;;;;;;;25.02;17.13;;;10.80;99.90;;;;;;5055669;28;20103;-68
2022/04/28 07:01:16;;;;;;;30.15;18.25;;;10.90;99.90;;;;;;5050093;28;20037;-67
2022/04/28 07:03:42;;;;;;;30.48;17.92;;;11.10;99.90;;;;;;5058287;28;20016;-67
2022/04/28 07:06:08;;;;;;;28.95;17.25;;;11.30;99.90;;;;;;5069458;28;20036;-68
2022/04/28 07:08:33;;;;;;;24.42;17.35;;;11.50;99.90;;;;;;5070013;28;20533;-68
2022/04/28 07:10:59;;;;;;;28.25;16.95;;;11.60;99.90;;;;;;5058508;28;20017;-67
2022/04/28 07:13:25;;;;;;;25.58;16.83;;;11.70;99.90;;;;;;5053525;28;20544;-68
2022/04/28 07:15:51;;;;;;;30.33;17.98;;;11.90;99.90;;;;;;5077512;28;20029;-68
2022/04/28 07:18:16;;;;;;;26.65;17.13;;;12.00;99.90;;;;;;5070504;28;20047;-68
2022/04/28 07:20:44;;;;;;;28.92;17.75;;;12.10;99.90;;;;;;5064848;28;20020;-68
2022/04/28 07:23:10;;;;;;;27.42;17.48;;;12.10;99.90;;;;;;5069131;28;20039;-69
2022/04/28 07:25:35;;;;;;;31.02;18.50;;;12.30;99.90;;;;;;5063244;28;20020;-68
2022/04/28 07:28:01;;;;;;;27.58;17.67;;;12.40;99.90;;;;;;5057636;28;20384;-68
2022/04/28 07:30:27;;;;;;;24.40;17.60;;;12.50;99.90;;;;;;5065654;28;20401;-68
2022/04/28 07:32:53;;;;;;;29.05;17.48;;;12.60;99.90;;;;;;5084379;28;20087;-68
2022/04/28 07:35:20;;;;;;;27.67;18.45;;;12.70;99.90;;;;;;5052959;28;20120;-68
2022/04/28 07:37:46;;;;;;;27.77;18.25;;;12.80;99.90;;;;;;5062207;28;20029;-68
2022/04/28 07:40:12;;;;;;;28.85;18.55;;;12.90;99.90;;;;;;5049577;28;20078;-68
2022/04/28 07:42:37;;;;;;;26.25;17.65;;;13.00;99.90;;;;;;5069197;28;20036;-68
2022/04/28 07:45:04;;;;;;;26.23;17.45;;;13.10;99.90;;;;;;5064083;28;20124;-68
2022/04/28 07:47:30;;;;;;;26.02;17.15;;;13.10;99.90;;;;;;5064014;28;20021;-68
2022/04/28 07:49:56;;;;;;;30.75;18.95;;;13.10;99.90;;;;;;5047400;28;20469;-69
2022/04/28 07:52:22;;;;;;;26.48;17.30;;;13.10;99.90;;;;;;5071220;28;20464;-68
2022/04/28 07:54:48;;;;;;;25.85;17.15;;;13.20;99.90;;;;;;5073220;28;20492;-68
2022/04/28 07:57:15;;;;;;;23.40;16.73;;;13.20;99.90;;;;;;5088840;28;20542;-68
2022/04/28 07:59:41;;;;;;;26.08;16.83;;;13.20;99.90;;;;;;5086488;28;20032;-68
2022/04/28 08:02:11;;;;;;;24.88;16.77;;;13.30;99.90;;;;;;5062631;28;20040;-68
2022/04/28 08:04:37;;;;;;;23.08;15.35;;;13.50;99.90;;;;;;5051988;28;20033;-67
2022/04/28 08:07:03;;;;;;;25.38;16.40;;;13.60;99.90;;;;;;5076240;28;20025;-67
2022/04/28 08:09:30;;;;;;;25.27;16.45;;;13.60;99.90;;;;;;5076628;28;20674;-68
2022/04/28 08:11:55;;;;;;;21.52;15.68;;;13.70;99.90;;;;;;5064868;28;20024;-68
2022/04/28 08:14:25;;;;;;;25.40;16.85;;;13.90;99.90;;;;;;5066381;28;20032;-67
2022/04/28 08:16:54;;;;;;;22.33;16.05;;;13.90;99.90;;;;;;5068727;28;20036;-67
2022/04/28 08:19:20;;;;;;;24.80;16.27;;;14.00;99.90;;;;;;5075588;28;20044;-68
2022/04/28 08:21:47;;;;;;;25.25;16.13;;;14.10;99.90;;;;;;5077675;28;20052;-68
2022/04/28 08:24:13;;;;;;;19.05;14.65;;;14.20;99.90;;;;;;5065706;28;20074;-68
2022/04/28 08:26:39;;;;;;;21.08;15.63;;;14.40;99.90;;;;;;5066759;28;20029;-68
2022/04/28 08:29:05;;;;;;;21.42;15.98;;;14.50;99.90;;;;;;5067703;28;20024;-68
2022/04/28 08:31:32;;;;;;;19.08;15.07;;;14.70;99.90;;;;;;5068505;28;20093;-68
2022/04/28 08:33:57;;;;;;;22.83;16.50;;;14.80;99.90;;;;;;5066768;28;20623;-68
2022/04/28 08:36:23;;;;;;;22.73;15.70;;;15.00;99.90;;;;;;5065916;28;20120;-68
2022/04/28 08:38:49;;;;;;;25.58;17.10;;;15.00;99.90;;;;;;5052775;28;20051;-68
2022/04/28 08:41:27;;;;;;;25.45;16.77;;;15.00;99.90;;;;;;5047177;28;20112;-68
2022/04/28 08:43:53;;;;;;;25.80;16.05;;;15.00;99.90;;;;;;5066166;28;20034;-68
2022/04/28 08:49:05;;;;;;;21.88;16.58;;;15.00;99.90;;;;;;5051110;28;20039;-70
2022/04/28 08:51:33;;;;;;;21.90;15.75;;;15.10;99.90;;;;;;5055028;28;20052;-70
2022/04/28 08:54:00;;;;;;;22.85;16.42;;;15.20;99.90;;;;;;5054246;28;20581;-69
2022/04/28 08:56:25;;;;;;;25.13;17.02;;;15.30;99.90;;;;;;5061984;28;20051;-70
2022/04/28 08:58:54;;;;;;;22.55;15.50;;;15.30;99.90;;;;;;5062292;28;20025;-70
2022/04/28 09:01:27;;;;;;;22.98;15.43;;;15.40;99.90;;;;;;5056635;28;20093;-70
2022/04/28 09:03:54;;;;;;;23.70;15.90;;;15.40;99.90;;;;;;5053244;28;20033;-70
2022/04/28 09:06:22;;;;;;;27.55;17.15;;;15.50;99.90;;;;;;5053776;28;20039;-70
2022/04/28 09:08:49;;;;;;;24.60;15.45;;;15.60;99.90;;;;;;5051363;28;20303;-70
2022/04/28 09:11:21;;;;;;;22.85;16.52;;;15.50;99.90;;;;;;5062102;28;20509;-70
2022/04/28 09:14:09;;;;;;;23.42;16.52;;;15.50;99.90;;;;;;5063516;28;20024;-70
2022/04/28 09:16:47;;;;;;;24.00;16.35;;;15.60;99.90;;;;;;5062288;28;20041;-70
2022/04/28 09:19:15;;;;;;;21.38;15.05;;;15.60;99.90;;;;;;5063501;28;20116;-69
2022/04/28 09:21:41;;;;;;;24.15;16.17;;;15.60;99.90;;;;;;5056035;28;20803;-70
2022/04/28 09:24:09;;;;;;;20.85;15.82;;;15.60;99.90;;;;;;5054068;28;20653;-69
2022/04/28 09:26:35;;;;;;;23.02;15.98;;;15.60;99.90;;;;;;5052185;28;20068;-69
2022/04/28 09:29:02;;;;;;;25.38;16.60;;;15.60;99.90;;;;;;5061279;28;20035;-69
2022/04/28 09:31:36;;;;;;;24.00;16.85;;;15.70;99.90;;;;;;5057518;28;20071;-69
2022/04/28 09:34:10;;;;;;;23.15;16.63;;;15.80;99.90;;;;;;5060488;28;20036;-69
2022/04/28 09:36:37;;;;;;;21.30;14.45;;;15.70;99.90;;;;;;5046902;28;20058;-68
2022/04/28 09:39:04;;;;;;;21.80;16.35;;;15.70;99.90;;;;;;5051834;28;20044;-69
2022/04/28 09:44:16;;;;;;;24.38;16.52;;;16.00;99.90;;;;;;5060357;28;20248;-68
2022/04/28 09:46:43;;;;;;;20.88;16.50;;;15.90;99.90;;;;;;5069776;28;20407;-69
2022/04/28 09:49:10;;;;;;;23.25;17.33;;;16.00;99.90;;;;;;5049500;28;20036;-70
2022/04/28 09:51:40;;;;;;;22.40;16.67;;;16.00;99.90;;;;;;5055316;28;20032;-70
2022/04/28 09:54:11;;;;;;;19.58;15.02;;;16.10;99.80;;;;;;5059039;28;23559;-70
2022/04/28 09:56:38;;;;;;;23.05;15.43;;;16.30;99.90;;;;;;5061565;28;20557;-69
2022/04/28 09:59:06;;;;;;;21.17;15.45;;;16.40;99.90;;;;;;5059732;28;20058;-70
2022/04/28 10:01:33;;;;;;;20.30;15.25;;;16.40;99.40;;;;;;5045601;28;20123;-70
2022/04/28 10:03:59;;;;;;;23.50;15.57;;;16.50;99.10;;;;;;5053799;28;20040;-70
2022/04/28 10:06:26;;;;;;;20.65;15.55;;;16.60;98.50;;;;;;5051314;28;20210;-70
2022/04/28 10:08:52;;;;;;;19.70;15.40;;;16.70;97.30;;;;;;5047792;28;20056;-70
2022/04/28 10:11:22;;;;;;;21.88;14.55;;;16.80;97.60;;;;;;5058088;28;20048;-69
2022/04/28 10:13:50;;;;;;;20.58;15.43;;;17.00;96.50;;;;;;5056331;28;20024;-69
2022/04/28 10:16:19;;;;;;;22.80;16.45;;;17.20;96.80;;;;;;5053141;28;20495;-70
2022/04/28 10:19:09;;;;;;;21.20;16.23;;;17.10;96.40;;;;;;5056734;28;20089;-69
2022/04/28 10:21:52;;;;;;;20.80;16.42;;;17.30;95.60;;;;;;5050708;28;20028;-69
2022/04/28 10:32:57;;;;;;;25.30;17.45;;;17.50;96.60;;;;;;5057889;28;20557;-69
2022/04/28 10:35:42;;;;;;;22.75;17.50;;;17.30;97.90;;;;;;5057876;28;20051;-68
2022/04/28 10:38:38;;;;;;;25.67;18.23;;;17.20;96.90;;;;;;5050480;28;20024;-68
2022/04/28 10:41:04;;;;;;;21.33;16.70;;;17.20;99.40;;;;;;5059548;28;20098;-69
2022/04/28 10:43:33;;;;;;;23.50;18.13;;;17.20;97.60;;;;;;5064932;28;20402;-68
2022/04/28 10:46:01;;;;;;;20.27;16.40;;;17.30;96.70;;;;;;5060855;28;20028;-69
2022/04/28 10:48:30;;;;;;;23.42;18.77;;;17.50;96.00;;;;;;5054739;28;20040;-69
2022/04/28 10:51:15;;;;;;;21.27;17.83;;;17.50;96.50;;;;;;5070919;28;20039;-69
2022/04/28 10:54:06;;;;;;;26.02;19.45;;;17.60;97.40;;;;;;5057778;28;20012;-69
2022/04/28 10:56:56;;;;;;;21.25;17.27;;;17.70;96.70;;;;;;5059075;28;20024;-69
2022/04/28 10:59:29;;;;;;;19.25;17.00;;;17.80;96.70;;;;;;5053984;28;20162;-69
2022/04/28 11:01:55;;;;;;;25.52;18.02;;;18.10;95.40;;;;;;5055564;28;20029;-68
2022/04/28 11:04:23;;;;;;;23.88;18.30;;;18.20;95.90;;;;;;5053558;28;20037;-69
2022/04/28 11:06:55;;;;;;;24.48;18.20;;;18.00;96.30;;;;;;5055029;28;20035;-68
2022/04/28 11:09:41;;;;;;;22.00;17.00;;;18.10;95.60;;;;;;5060926;28;20029;-69
2022/04/28 11:12:14;;;;;;;20.35;16.63;;;18.20;92.90;;;;;;5048735;28;20386;-68
2022/04/28 11:15:01;;;;;;;25.02;18.00;;;18.10;93.20;;;;;;5053646;28;20273;-69
2022/04/28 11:17:28;;;;;;;24.40;17.02;;;18.30;94.70;;;;;;5061836;28;20368;-69
2022/04/28 11:19:55;;;;;;;22.75;17.20;;;18.40;94.40;;;;;;5059781;28;20315;-69
2022/04/28 11:22:21;;;;;;;22.35;16.77;;;18.40;93.60;;;;;;5053605;28;20082;-68
2022/04/28 11:24:51;;;;;;;20.83;17.00;;;18.00;95.70;;;;;;5065157;28;20087;-69
2022/04/28 11:27:21;;;;;;;24.90;17.70;;;18.00;95.40;;;;;;5048106;28;20044;-69
2022/04/28 11:29:49;;;;;;;26.88;16.77;;;17.70;94.40;;;;;;5054968;28;20102;-68
2022/04/28 11:32:16;;;;;;;23.15;17.45;;;17.40;93.90;;;;;;5049964;28;20048;-69
2022/04/28 11:34:43;;;;;;;23.98;16.92;;;17.30;95.10;;;;;;5063631;28;20392;-69
2022/04/28 11:37:17;;;;;;;24.17;15.10;;;17.40;92.80;;;;;;5055225;28;20036;-69
2022/04/28 11:39:44;;;;;;;21.60;16.20;;;17.60;92.20;;;;;;5060380;28;20032;-70
2022/04/28 11:42:12;;;;;;;19.23;15.43;;;18.10;91.90;;;;;;5067156;28;20033;-69
2022/04/28 11:44:52;;;;;;;23.45;17.42;;;18.70;92.50;;;;;;5065627;28;20438;-70
2022/04/28 11:47:23;;;;;;;25.70;17.60;;;18.70;91.40;;;;;;5062452;28;20306;-72
2022/04/28 11:49:55;;;;;;;21.50;16.63;;;18.50;92.40;;;;;;5051189;28;20096;-71
2022/04/28 11:52:39;;;;;;;22.42;15.65;;;18.50;92.30;;;;;;5058838;28;20166;-71
2022/04/28 11:55:06;;;;;;;;;;;18.60;91.40;;;;;;5070731;28;20106;-70
2022/04/28 11:57:32;;;;;;;22.00;17.30;;;18.40;92.00;;;;;;5073657;28;20378;-70
2022/04/28 11:59:58;;;;;;;19.75;16.58;;;18.20;93.90;;;;;;5057633;28;20508;-71
2022/04/28 12:02:32;;;;;;;21.58;16.25;;;17.80;94.20;;;;;;5058475;28;20084;-70
2022/04/28 12:05:01;;;;;;;;;;;17.50;94.80;;;;;;5054231;28;20052;-70
2022/04/28 12:07:33;;;;;;;24.42;15.88;;;17.40;92.10;;;;;;5062768;28;19973;-71
2022/04/28 12:15:28;;;;;;;18.95;14.77;;;18.30;90.00;;;;;;5062482;28;20495;-70
2022/04/28 12:20:53;;;;;;;18.63;14.23;;;18.70;89.60;;;;;;5062517;28;20487;-70
2022/04/28 12:23:58;;;;;;;16.35;13.13;;;18.90;88.00;;;;;;5057360;28;20045;-69
2022/04/28 12:26:24;;;;;;;17.52;13.43;;;19.30;99.90;;;;;;4984769;28;20040;-70
2022/04/28 12:28:50;;;;;;;15.98;11.75;;;19.60;99.90;;;;;;5044440;28;20037;-70
2022/04/28 12:31:27;;;;;;;17.63;12.15;;;19.80;92.20;;;;;;5060728;28;20013;-69
2022/04/28 12:33:53;;;;;;;18.00;13.48;;;19.90;90.90;;;;;;5060169;28;20029;-69
2022/04/28 12:36:19;;;;;;;16.75;12.25;;;19.90;87.80;;;;;;5061683;28;20018;-69
2022/04/28 12:38:58;;;;;;;19.50;13.70;;;19.80;88.30;;;;;;5048522;28;20029;-69
2022/04/28 12:41:27;;;;;;;20.02;13.40;;;19.80;91.10;;;;;;5050269;28;20028;-70
2022/04/28 12:43:57;;;;;;;14.32;11.48;;;19.70;91.10;;;;;;5057494;28;20052;-71
2022/04/28 12:46:32;;;;;;;17.02;13.07;;;19.70;88.10;;;;;;5075067;28;20081;-70
2022/04/28 12:48:59;;;;;;;16.50;12.85;;;19.70;90.80;;;;;;5071653;28;20052;-71
2022/04/28 12:51:28;;;;;;;16.80;11.73;;;19.50;91.10;;;;;;5061274;28;20044;-70
2022/04/28 12:54:14;;;;;;;15.35;12.32;;;19.50;90.30;;;;;;5062957;28;20028;-70
2022/04/28 12:56:45;;;;;;;16.52;11.90;;;19.50;88.70;;;;;;5059943;28;20033;-71
2022/04/28 12:59:14;;;;;;;15.13;11.80;;;19.60;85.00;;;;;;5052896;28;20096;-70
2022/04/28 13:01:41;;;;;;;16.83;12.18;;;19.70;83.60;;;;;;5062430;28;20027;-70
2022/04/28 13:04:13;;;;;;;12.95;11.20;;;19.90;85.80;;;;;;5057825;28;20111;-70
2022/04/28 13:06:45;;;;;;;16.08;11.85;;;20.00;81.00;;;;;;5053901;28;20029;-69
2022/04/28 13:09:11;;;;;;;14.63;11.45;;;20.10;71.70;;;;;;5064343;28;20024;-69
2022/04/28 13:11:39;;;;;;;15.02;10.98;;;20.10;71.10;;;;;;5060327;28;20756;-69